sensor_id;sensor_type;location;lat;lon;timestamp;P1;durP1;ratioP1;P2;durP2;ratioP2
79361;SDS011;68830;47.566;19.012;2023-06-19T00:02:09;8.98;;;5.70;;
79361;SDS011;68830;47.566;19.012;2023-06-19T00:05:11;7.00;;;5.10;;
79361;SDS011;68830;47.566;19.012;2023-06-19T00:08:15;7.57;;;5.72;;
79361;SDS011;68830;47.566;19.012;2023-06-19T00:11:17;5.95;;;5.20;;
79361;SDS011;68830;47.566;19.012;2023-06-19T00:14:20;6.50;;;5.32;;
79361;SDS011;68830;47.566;19.012;2023-06-19T00:17:23;8.45;;;5.97;;
79361;SDS011;68830;47.566;19.012;2023-06-19T00:20:28;8.30;;;5.93;;
79361;SDS011;68830;47.566;19.012;2023-06-19T00:23:31;8.30;;;6.05;;
79361;SDS011;68830;47.566;19.012;2023-06-19T00:26:32;7.82;;;6.47;;
79361;SDS011;68830;47.566;19.012;2023-06-19T00:29:35;7.28;;;6.20;;
79361;SDS011;68830;47.566;19.012;2023-06-19T00:32:38;6.63;;;5.57;;
79361;SDS011;68830;47.566;19.012;2023-06-19T00:35:49;6.88;;;5.65;;
79361;SDS011;68830;47.566;19.012;2023-06-19T00:38:51;7.50;;;6.00;;
79361;SDS011;68830;47.566;19.012;2023-06-19T00:41:55;7.93;;;6.10;;
79361;SDS011;68830;47.566;19.012;2023-06-19T00:44:57;7.78;;;5.63;;
79361;SDS011;68830;47.566;19.012;2023-06-19T00:48:01;6.70;;;5.95;;
79361;SDS011;68830;47.566;19.012;2023-06-19T00:51:06;7.35;;;5.20;;
79361;SDS011;68830;47.566;19.012;2023-06-19T00:54:07;9.15;;;6.35;;
79361;SDS011;68830;47.566;19.012;2023-06-19T00:57:11;7.78;;;6.30;;
79361;SDS011;68830;47.566;19.012;2023-06-19T01:00:13;8.43;;;6.40;;
79361;SDS011;68830;47.566;19.012;2023-06-19T01:03:16;7.07;;;5.93;;
79361;SDS011;68830;47.566;19.012;2023-06-19T01:06:22;6.88;;;6.07;;
79361;SDS011;68830;47.566;19.012;2023-06-19T01:12:36;7.40;;;5.88;;
79361;SDS011;68830;47.566;19.012;2023-06-19T01:15:40;10.23;;;6.30;;
79361;SDS011;68830;47.566;19.012;2023-06-19T01:18:45;6.70;;;5.80;;
79361;SDS011;68830;47.566;19.012;2023-06-19T01:21:48;8.65;;;5.70;;
79361;SDS011;68830;47.566;19.012;2023-06-19T01:24:53;6.95;;;5.68;;
79361;SDS011;68830;47.566;19.012;2023-06-19T01:27:55;7.30;;;6.20;;
79361;SDS011;68830;47.566;19.012;2023-06-19T01:30:57;8.93;;;6.78;;
79361;SDS011;68830;47.566;19.012;2023-06-19T01:34:04;8.13;;;6.43;;
79361;SDS011;68830;47.566;19.012;2023-06-19T01:37:09;8.20;;;6.40;;
79361;SDS011;68830;47.566;19.012;2023-06-19T01:40:14;6.60;;;5.65;;
79361;SDS011;68830;47.566;19.012;2023-06-19T01:43:19;8.65;;;6.43;;
79361;SDS011;68830;47.566;19.012;2023-06-19T01:46:21;8.00;;;6.20;;
79361;SDS011;68830;47.566;19.012;2023-06-19T01:49:23;6.88;;;6.07;;
79361;SDS011;68830;47.566;19.012;2023-06-19T01:52:25;9.65;;;6.38;;
79361;SDS011;68830;47.566;19.012;2023-06-19T01:55:29;6.22;;;5.40;;
79361;SDS011;68830;47.566;19.012;2023-06-19T01:58:31;9.63;;;6.13;;
79361;SDS011;68830;47.566;19.012;2023-06-19T02:01:33;7.82;;;5.55;;
79361;SDS011;68830;47.566;19.012;2023-06-19T02:04:35;6.90;;;5.47;;
79361;SDS011;68830;47.566;19.012;2023-06-19T02:07:37;8.63;;;5.22;;
79361;SDS011;68830;47.566;19.012;2023-06-19T02:10:41;7.30;;;6.03;;
79361;SDS011;68830;47.566;19.012;2023-06-19T02:13:43;7.35;;;6.22;;
79361;SDS011;68830;47.566;19.012;2023-06-19T02:16:45;9.43;;;5.72;;
79361;SDS011;68830;47.566;19.012;2023-06-19T02:19:47;8.57;;;6.50;;
79361;SDS011;68830;47.566;19.012;2023-06-19T02:22:51;8.70;;;6.72;;
79361;SDS011;68830;47.566;19.012;2023-06-19T02:25:55;7.38;;;6.20;;
79361;SDS011;68830;47.566;19.012;2023-06-19T02:28:57;10.20;;;6.60;;
79361;SDS011;68830;47.566;19.012;2023-06-19T02:31:59;8.15;;;5.60;;
79361;SDS011;68830;47.566;19.012;2023-06-19T02:35:01;8.30;;;6.28;;
79361;SDS011;68830;47.566;19.012;2023-06-19T02:38:04;7.18;;;6.03;;
79361;SDS011;68830;47.566;19.012;2023-06-19T02:41:08;8.27;;;6.85;;
79361;SDS011;68830;47.566;19.012;2023-06-19T02:44:09;8.80;;;6.03;;
79361;SDS011;68830;47.566;19.012;2023-06-19T02:47:12;8.35;;;6.85;;
79361;SDS011;68830;47.566;19.012;2023-06-19T02:50:14;8.18;;;5.78;;
79361;SDS011;68830;47.566;19.012;2023-06-19T02:53:16;10.18;;;6.38;;
79361;SDS011;68830;47.566;19.012;2023-06-19T02:56:20;7.45;;;5.97;;
79361;SDS011;68830;47.566;19.012;2023-06-19T02:59:21;7.50;;;5.78;;
79361;SDS011;68830;47.566;19.012;2023-06-19T03:02:23;6.88;;;5.80;;
79361;SDS011;68830;47.566;19.012;2023-06-19T03:05:25;8.02;;;6.55;;
79361;SDS011;68830;47.566;19.012;2023-06-19T03:08:28;8.10;;;6.50;;
79361;SDS011;68830;47.566;19.012;2023-06-19T03:11:32;7.70;;;6.68;;
79361;SDS011;68830;47.566;19.012;2023-06-19T03:14:33;9.57;;;6.50;;
79361;SDS011;68830;47.566;19.012;2023-06-19T03:17:36;7.72;;;6.50;;
79361;SDS011;68830;47.566;19.012;2023-06-19T03:20:38;7.88;;;6.28;;
79361;SDS011;68830;47.566;19.012;2023-06-19T03:23:40;8.05;;;6.30;;
79361;SDS011;68830;47.566;19.012;2023-06-19T03:26:45;8.77;;;7.32;;
79361;SDS011;68830;47.566;19.012;2023-06-19T03:29:46;7.80;;;6.35;;
79361;SDS011;68830;47.566;19.012;2023-06-19T03:32:48;6.78;;;5.72;;
79361;SDS011;68830;47.566;19.012;2023-06-19T03:35:50;8.18;;;5.93;;
79361;SDS011;68830;47.566;19.012;2023-06-19T03:38:53;7.35;;;6.50;;
79361;SDS011;68830;47.566;19.012;2023-06-19T03:41:58;8.38;;;6.10;;
79361;SDS011;68830;47.566;19.012;2023-06-19T03:45:00;7.57;;;6.53;;
79361;SDS011;68830;47.566;19.012;2023-06-19T03:48:03;6.57;;;5.90;;
79361;SDS011;68830;47.566;19.012;2023-06-19T03:51:06;7.60;;;6.72;;
79361;SDS011;68830;47.566;19.012;2023-06-19T03:54:07;7.47;;;5.95;;
79361;SDS011;68830;47.566;19.012;2023-06-19T03:57:11;8.18;;;6.07;;
79361;SDS011;68830;47.566;19.012;2023-06-19T04:00:14;8.85;;;6.38;;
79361;SDS011;68830;47.566;19.012;2023-06-19T04:03:17;7.00;;;6.10;;
79361;SDS011;68830;47.566;19.012;2023-06-19T04:06:19;6.68;;;5.95;;
79361;SDS011;68830;47.566;19.012;2023-06-19T04:09:21;7.88;;;6.55;;
79361;SDS011;68830;47.566;19.012;2023-06-19T04:12:25;7.75;;;6.13;;
79361;SDS011;68830;47.566;19.012;2023-06-19T04:15:26;7.85;;;6.72;;
79361;SDS011;68830;47.566;19.012;2023-06-19T04:18:28;9.27;;;6.85;;
79361;SDS011;68830;47.566;19.012;2023-06-19T04:21:31;8.15;;;6.25;;
79361;SDS011;68830;47.566;19.012;2023-06-19T04:24:33;9.48;;;6.47;;
79361;SDS011;68830;47.566;19.012;2023-06-19T04:27:37;7.63;;;6.40;;
79361;SDS011;68830;47.566;19.012;2023-06-19T04:30:39;8.93;;;7.38;;
79361;SDS011;68830;47.566;19.012;2023-06-19T04:33:42;8.65;;;7.15;;
79361;SDS011;68830;47.566;19.012;2023-06-19T04:36:44;9.93;;;6.88;;
79361;SDS011;68830;47.566;19.012;2023-06-19T04:39:47;7.00;;;5.88;;
79361;SDS011;68830;47.566;19.012;2023-06-19T04:42:53;9.07;;;5.95;;
79361;SDS011;68830;47.566;19.012;2023-06-19T04:45:55;9.88;;;7.15;;
79361;SDS011;68830;47.566;19.012;2023-06-19T04:48:58;8.18;;;5.70;;
79361;SDS011;68830;47.566;19.012;2023-06-19T04:52:05;9.85;;;6.32;;
79361;SDS011;68830;47.566;19.012;2023-06-19T04:55:08;8.73;;;6.90;;
79361;SDS011;68830;47.566;19.012;2023-06-19T04:58:12;8.07;;;6.25;;
79361;SDS011;68830;47.566;19.012;2023-06-19T05:01:14;8.30;;;6.45;;
79361;SDS011;68830;47.566;19.012;2023-06-19T05:07:22;7.18;;;6.10;;
79361;SDS011;68830;47.566;19.012;2023-06-19T05:10:24;8.40;;;6.35;;
79361;SDS011;68830;47.566;19.012;2023-06-19T05:13:27;8.27;;;7.05;;
79361;SDS011;68830;47.566;19.012;2023-06-19T05:16:29;7.57;;;5.93;;
79361;SDS011;68830;47.566;19.012;2023-06-19T05:19:35;8.05;;;6.78;;
79361;SDS011;68830;47.566;19.012;2023-06-19T05:22:37;8.43;;;6.72;;
79361;SDS011;68830;47.566;19.012;2023-06-19T05:25:40;6.97;;;6.20;;
79361;SDS011;68830;47.566;19.012;2023-06-19T05:28:44;8.60;;;7.68;;
79361;SDS011;68830;47.566;19.012;2023-06-19T05:31:47;8.20;;;7.07;;
79361;SDS011;68830;47.566;19.012;2023-06-19T05:34:49;10.05;;;6.22;;
79361;SDS011;68830;47.566;19.012;2023-06-19T05:37:51;8.70;;;5.97;;
79361;SDS011;68830;47.566;19.012;2023-06-19T05:40:53;8.43;;;6.28;;
79361;SDS011;68830;47.566;19.012;2023-06-19T05:43:56;10.55;;;6.32;;
79361;SDS011;68830;47.566;19.012;2023-06-19T05:46:59;10.25;;;6.28;;
79361;SDS011;68830;47.566;19.012;2023-06-19T05:50:01;7.93;;;6.85;;
79361;SDS011;68830;47.566;19.012;2023-06-19T05:53:03;9.35;;;6.50;;
79361;SDS011;68830;47.566;19.012;2023-06-19T05:56:06;7.68;;;5.43;;
79361;SDS011;68830;47.566;19.012;2023-06-19T05:59:09;7.45;;;5.68;;
79361;SDS011;68830;47.566;19.012;2023-06-19T06:02:12;9.18;;;7.60;;
79361;SDS011;68830;47.566;19.012;2023-06-19T06:05:14;11.80;;;7.82;;
79361;SDS011;68830;47.566;19.012;2023-06-19T06:08:19;8.88;;;7.18;;
79361;SDS011;68830;47.566;19.012;2023-06-19T06:11:22;12.02;;;6.65;;
79361;SDS011;68830;47.566;19.012;2023-06-19T06:14:26;8.30;;;7.43;;
79361;SDS011;68830;47.566;19.012;2023-06-19T06:17:28;7.32;;;6.57;;
79361;SDS011;68830;47.566;19.012;2023-06-19T06:20:31;8.68;;;6.70;;
79361;SDS011;68830;47.566;19.012;2023-06-19T06:23:33;8.77;;;7.53;;
79361;SDS011;68830;47.566;19.012;2023-06-19T06:26:35;7.40;;;6.70;;
79361;SDS011;68830;47.566;19.012;2023-06-19T06:29:39;8.85;;;6.70;;
79361;SDS011;68830;47.566;19.012;2023-06-19T06:32:41;11.07;;;5.85;;
79361;SDS011;68830;47.566;19.012;2023-06-19T06:35:44;6.65;;;4.90;;
79361;SDS011;68830;47.566;19.012;2023-06-19T06:38:46;7.47;;;5.40;;
79361;SDS011;68830;47.566;19.012;2023-06-19T06:41:47;7.95;;;5.25;;
79361;SDS011;68830;47.566;19.012;2023-06-19T06:44:51;8.18;;;6.03;;
79361;SDS011;68830;47.566;19.012;2023-06-19T06:47:53;8.25;;;5.53;;
79361;SDS011;68830;47.566;19.012;2023-06-19T06:50:58;5.80;;;4.88;;
79361;SDS011;68830;47.566;19.012;2023-06-19T06:54:02;5.80;;;4.63;;
79361;SDS011;68830;47.566;19.012;2023-06-19T06:57:05;6.20;;;5.00;;
79361;SDS011;68830;47.566;19.012;2023-06-19T07:00:09;9.50;;;5.55;;
79361;SDS011;68830;47.566;19.012;2023-06-19T07:03:12;5.85;;;4.57;;
79361;SDS011;68830;47.566;19.012;2023-06-19T07:06:15;7.13;;;5.80;;
79361;SDS011;68830;47.566;19.012;2023-06-19T07:09:17;7.65;;;4.88;;
79361;SDS011;68830;47.566;19.012;2023-06-19T07:12:19;6.25;;;4.25;;
79361;SDS011;68830;47.566;19.012;2023-06-19T07:15:22;6.57;;;5.43;;
79361;SDS011;68830;47.566;19.012;2023-06-19T07:18:24;5.82;;;5.22;;
79361;SDS011;68830;47.566;19.012;2023-06-19T07:21:26;10.48;;;5.70;;
79361;SDS011;68830;47.566;19.012;2023-06-19T07:24:29;15.90;;;5.40;;
79361;SDS011;68830;47.566;19.012;2023-06-19T07:27:31;5.90;;;4.78;;
79361;SDS011;68830;47.566;19.012;2023-06-19T07:30:35;6.80;;;4.45;;
79361;SDS011;68830;47.566;19.012;2023-06-19T07:33:37;6.30;;;5.25;;
79361;SDS011;68830;47.566;19.012;2023-06-19T07:36:39;6.18;;;5.30;;
79361;SDS011;68830;47.566;19.012;2023-06-19T07:39:41;5.00;;;4.50;;
79361;SDS011;68830;47.566;19.012;2023-06-19T07:42:45;6.70;;;4.47;;
79361;SDS011;68830;47.566;19.012;2023-06-19T07:45:48;5.13;;;4.28;;
79361;SDS011;68830;47.566;19.012;2023-06-19T07:48:51;5.75;;;4.75;;
79361;SDS011;68830;47.566;19.012;2023-06-19T07:51:52;7.18;;;5.82;;
79361;SDS011;68830;47.566;19.012;2023-06-19T07:54:55;7.55;;;5.07;;
79361;SDS011;68830;47.566;19.012;2023-06-19T07:57:59;5.90;;;5.30;;
79361;SDS011;68830;47.566;19.012;2023-06-19T08:01:02;5.18;;;4.68;;
79361;SDS011;68830;47.566;19.012;2023-06-19T08:04:04;5.88;;;5.03;;
79361;SDS011;68830;47.566;19.012;2023-06-19T08:07:07;7.35;;;5.03;;
79361;SDS011;68830;47.566;19.012;2023-06-19T08:10:09;5.95;;;5.22;;
79361;SDS011;68830;47.566;19.012;2023-06-19T08:13:15;6.65;;;5.03;;
79361;SDS011;68830;47.566;19.012;2023-06-19T08:16:19;5.75;;;5.25;;
79361;SDS011;68830;47.566;19.012;2023-06-19T08:19:21;7.15;;;5.78;;
79361;SDS011;68830;47.566;19.012;2023-06-19T08:22:23;6.78;;;6.03;;
79361;SDS011;68830;47.566;19.012;2023-06-19T08:25:26;6.88;;;4.85;;
79361;SDS011;68830;47.566;19.012;2023-06-19T08:28:29;7.78;;;5.47;;
79361;SDS011;68830;47.566;19.012;2023-06-19T08:31:34;5.85;;;5.25;;
79361;SDS011;68830;47.566;19.012;2023-06-19T08:34:36;7.32;;;6.63;;
79361;SDS011;68830;47.566;19.012;2023-06-19T08:37:39;7.10;;;5.03;;
79361;SDS011;68830;47.566;19.012;2023-06-19T08:40:41;5.60;;;5.10;;
79361;SDS011;68830;47.566;19.012;2023-06-19T08:43:44;6.63;;;5.03;;
79361;SDS011;68830;47.566;19.012;2023-06-19T08:46:48;6.00;;;5.40;;
79361;SDS011;68830;47.566;19.012;2023-06-19T08:49:50;5.90;;;4.65;;
79361;SDS011;68830;47.566;19.012;2023-06-19T08:52:52;5.82;;;5.10;;
79361;SDS011;68830;47.566;19.012;2023-06-19T08:55:56;6.38;;;5.20;;
79361;SDS011;68830;47.566;19.012;2023-06-19T09:02:20;5.50;;;5.00;;
79361;SDS011;68830;47.566;19.012;2023-06-19T09:05:22;6.45;;;4.68;;
79361;SDS011;68830;47.566;19.012;2023-06-19T09:08:24;6.13;;;5.47;;
79361;SDS011;68830;47.566;19.012;2023-06-19T09:11:26;6.28;;;4.30;;
79361;SDS011;68830;47.566;19.012;2023-06-19T09:14:31;5.47;;;4.72;;
79361;SDS011;68830;47.566;19.012;2023-06-19T09:17:36;6.28;;;4.40;;
79361;SDS011;68830;47.566;19.012;2023-06-19T09:20:38;7.72;;;5.05;;
79361;SDS011;68830;47.566;19.012;2023-06-19T09:23:45;5.72;;;5.15;;
79361;SDS011;68830;47.566;19.012;2023-06-19T09:26:48;5.95;;;4.95;;
79361;SDS011;68830;47.566;19.012;2023-06-19T09:32:55;4.63;;;4.13;;
79361;SDS011;68830;47.566;19.012;2023-06-19T09:36:08;6.13;;;4.03;;
79361;SDS011;68830;47.566;19.012;2023-06-19T09:39:10;4.70;;;4.30;;
79361;SDS011;68830;47.566;19.012;2023-06-19T09:42:14;4.75;;;4.25;;
79361;SDS011;68830;47.566;19.012;2023-06-19T09:45:18;4.82;;;4.28;;
79361;SDS011;68830;47.566;19.012;2023-06-19T09:48:26;5.15;;;4.18;;
79361;SDS011;68830;47.566;19.012;2023-06-19T09:51:31;5.30;;;4.00;;
79361;SDS011;68830;47.566;19.012;2023-06-19T09:54:38;5.40;;;4.18;;
79361;SDS011;68830;47.566;19.012;2023-06-19T09:57:42;5.63;;;5.15;;
79361;SDS011;68830;47.566;19.012;2023-06-19T10:00:46;4.68;;;3.58;;
79361;SDS011;68830;47.566;19.012;2023-06-19T10:04:00;3.92;;;3.53;;
79361;SDS011;68830;47.566;19.012;2023-06-19T10:07:14;4.55;;;4.13;;
79361;SDS011;68830;47.566;19.012;2023-06-19T10:10:22;4.00;;;3.60;;
79361;SDS011;68830;47.566;19.012;2023-06-19T10:13:33;6.15;;;3.50;;
79361;SDS011;68830;47.566;19.012;2023-06-19T10:16:36;4.15;;;3.83;;
79361;SDS011;68830;47.566;19.012;2023-06-19T10:19:48;4.00;;;3.60;;
79361;SDS011;68830;47.566;19.012;2023-06-19T10:22:53;6.30;;;4.45;;
79361;SDS011;68830;47.566;19.012;2023-06-19T10:25:59;9.00;;;4.30;;
79361;SDS011;68830;47.566;19.012;2023-06-19T10:29:13;6.82;;;4.32;;
79361;SDS011;68830;47.566;19.012;2023-06-19T10:32:15;5.72;;;4.43;;
79361;SDS011;68830;47.566;19.012;2023-06-19T10:35:19;13.18;;;5.07;;
79361;SDS011;68830;47.566;19.012;2023-06-19T10:38:26;7.40;;;4.50;;
79361;SDS011;68830;47.566;19.012;2023-06-19T10:41:28;7.18;;;4.50;;
79361;SDS011;68830;47.566;19.012;2023-06-19T10:44:30;5.32;;;4.22;;
79361;SDS011;68830;47.566;19.012;2023-06-19T10:47:33;5.18;;;4.63;;
79361;SDS011;68830;47.566;19.012;2023-06-19T10:50:37;4.40;;;4.00;;
79361;SDS011;68830;47.566;19.012;2023-06-19T10:53:44;5.95;;;3.45;;
79361;SDS011;68830;47.566;19.012;2023-06-19T10:56:46;8.80;;;4.68;;
79361;SDS011;68830;47.566;19.012;2023-06-19T10:59:51;5.13;;;4.13;;
79361;SDS011;68830;47.566;19.012;2023-06-19T11:02:54;6.88;;;4.00;;
79361;SDS011;68830;47.566;19.012;2023-06-19T11:05:58;4.88;;;4.35;;
79361;SDS011;68830;47.566;19.012;2023-06-19T11:09:00;4.95;;;4.40;;
79361;SDS011;68830;47.566;19.012;2023-06-19T11:12:04;4.30;;;3.67;;
79361;SDS011;68830;47.566;19.012;2023-06-19T11:15:10;4.28;;;3.88;;
79361;SDS011;68830;47.566;19.012;2023-06-19T11:18:14;4.63;;;4.00;;
79361;SDS011;68830;47.566;19.012;2023-06-19T11:21:18;4.70;;;4.20;;
79361;SDS011;68830;47.566;19.012;2023-06-19T11:24:22;4.50;;;3.97;;
79361;SDS011;68830;47.566;19.012;2023-06-19T11:27:25;4.30;;;3.90;;
79361;SDS011;68830;47.566;19.012;2023-06-19T11:30:30;4.57;;;3.95;;
79361;SDS011;68830;47.566;19.012;2023-06-19T11:33:34;4.35;;;3.95;;
79361;SDS011;68830;47.566;19.012;2023-06-19T11:36:38;5.57;;;5.07;;
79361;SDS011;68830;47.566;19.012;2023-06-19T11:39:40;4.05;;;3.40;;
79361;SDS011;68830;47.566;19.012;2023-06-19T11:42:46;4.78;;;3.88;;
79361;SDS011;68830;47.566;19.012;2023-06-19T11:45:49;7.82;;;4.25;;
79361;SDS011;68830;47.566;19.012;2023-06-19T11:48:53;4.47;;;4.07;;
79361;SDS011;68830;47.566;19.012;2023-06-19T11:52:09;5.05;;;4.63;;
79361;SDS011;68830;47.566;19.012;2023-06-19T11:55:11;4.72;;;4.15;;
79361;SDS011;68830;47.566;19.012;2023-06-19T11:58:14;8.80;;;4.68;;
79361;SDS011;68830;47.566;19.012;2023-06-19T12:01:20;5.25;;;4.75;;
79361;SDS011;68830;47.566;19.012;2023-06-19T12:04:22;11.02;;;5.28;;
79361;SDS011;68830;47.566;19.012;2023-06-19T12:07:26;5.22;;;4.72;;
79361;SDS011;68830;47.566;19.012;2023-06-19T12:10:29;8.50;;;4.10;;
79361;SDS011;68830;47.566;19.012;2023-06-19T12:13:31;5.05;;;4.00;;
79361;SDS011;68830;47.566;19.012;2023-06-19T12:16:33;4.75;;;3.70;;
79361;SDS011;68830;47.566;19.012;2023-06-19T12:19:35;4.97;;;3.80;;
79361;SDS011;68830;47.566;19.012;2023-06-19T12:22:38;7.28;;;3.70;;
79361;SDS011;68830;47.566;19.012;2023-06-19T12:25:41;4.40;;;3.90;;
79361;SDS011;68830;47.566;19.012;2023-06-19T12:28:43;4.43;;;3.72;;
79361;SDS011;68830;47.566;19.012;2023-06-19T12:31:45;4.57;;;3.78;;
79361;SDS011;68830;47.566;19.012;2023-06-19T12:34:47;4.10;;;3.78;;
79361;SDS011;68830;47.566;19.012;2023-06-19T12:37:50;6.57;;;4.40;;
79361;SDS011;68830;47.566;19.012;2023-06-19T12:40:53;4.40;;;4.00;;
79361;SDS011;68830;47.566;19.012;2023-06-19T12:43:55;4.78;;;4.15;;
79361;SDS011;68830;47.566;19.012;2023-06-19T12:46:57;4.88;;;4.38;;
79361;SDS011;68830;47.566;19.012;2023-06-19T12:50:01;5.03;;;4.05;;
79361;SDS011;68830;47.566;19.012;2023-06-19T12:53:05;4.70;;;4.30;;
79361;SDS011;68830;47.566;19.012;2023-06-19T12:56:07;4.65;;;4.15;;
79361;SDS011;68830;47.566;19.012;2023-06-19T12:59:14;4.78;;;3.75;;
79361;SDS011;68830;47.566;19.012;2023-06-19T13:02:17;4.63;;;3.80;;
79361;SDS011;68830;47.566;19.012;2023-06-19T13:05:19;4.22;;;3.83;;
79361;SDS011;68830;47.566;19.012;2023-06-19T13:08:22;3.90;;;3.50;;
79361;SDS011;68830;47.566;19.012;2023-06-19T13:11:25;4.60;;;4.07;;
79361;SDS011;68830;47.566;19.012;2023-06-19T13:14:27;4.97;;;4.13;;
79361;SDS011;68830;47.566;19.012;2023-06-19T13:17:30;4.78;;;4.38;;
79361;SDS011;68830;47.566;19.012;2023-06-19T13:20:32;4.32;;;3.55;;
79361;SDS011;68830;47.566;19.012;2023-06-19T13:23:36;5.95;;;3.95;;
79361;SDS011;68830;47.566;19.012;2023-06-19T13:26:38;4.32;;;3.92;;
79361;SDS011;68830;47.566;19.012;2023-06-19T13:29:40;4.25;;;3.70;;
79361;SDS011;68830;47.566;19.012;2023-06-19T13:32:42;4.95;;;3.92;;
79361;SDS011;68830;47.566;19.012;2023-06-19T13:35:44;4.50;;;3.78;;
79361;SDS011;68830;47.566;19.012;2023-06-19T13:38:47;3.90;;;3.58;;
79361;SDS011;68830;47.566;19.012;2023-06-19T13:41:50;4.57;;;3.55;;
79361;SDS011;68830;47.566;19.012;2023-06-19T13:44:52;4.45;;;3.83;;
79361;SDS011;68830;47.566;19.012;2023-06-19T13:47:54;5.40;;;4.72;;
79361;SDS011;68830;47.566;19.012;2023-06-19T13:50:57;5.18;;;4.28;;
79361;SDS011;68830;47.566;19.012;2023-06-19T13:54:02;4.15;;;3.50;;
79361;SDS011;68830;47.566;19.012;2023-06-19T13:57:06;3.78;;;3.47;;
79361;SDS011;68830;47.566;19.012;2023-06-19T14:00:09;4.88;;;3.97;;
79361;SDS011;68830;47.566;19.012;2023-06-19T14:03:21;4.18;;;3.78;;
79361;SDS011;68830;47.566;19.012;2023-06-19T14:06:24;4.50;;;4.10;;
79361;SDS011;68830;47.566;19.012;2023-06-19T14:09:28;4.57;;;4.13;;
79361;SDS011;68830;47.566;19.012;2023-06-19T14:12:30;5.13;;;4.10;;
79361;SDS011;68830;47.566;19.012;2023-06-19T14:15:33;4.82;;;4.25;;
79361;SDS011;68830;47.566;19.012;2023-06-19T14:18:34;4.95;;;4.22;;
79361;SDS011;68830;47.566;19.012;2023-06-19T14:21:38;5.03;;;4.22;;
79361;SDS011;68830;47.566;19.012;2023-06-19T14:24:42;4.18;;;3.78;;
79361;SDS011;68830;47.566;19.012;2023-06-19T14:27:44;4.63;;;4.03;;
79361;SDS011;68830;47.566;19.012;2023-06-19T14:30:47;4.63;;;3.88;;
79361;SDS011;68830;47.566;19.012;2023-06-19T14:33:48;4.43;;;4.00;;
79361;SDS011;68830;47.566;19.012;2023-06-19T14:36:51;3.97;;;3.58;;
79361;SDS011;68830;47.566;19.012;2023-06-19T14:39:55;5.30;;;4.28;;
79361;SDS011;68830;47.566;19.012;2023-06-19T14:42:57;5.40;;;4.45;;
79361;SDS011;68830;47.566;19.012;2023-06-19T14:45:59;4.25;;;3.22;;
79361;SDS011;68830;47.566;19.012;2023-06-19T14:49:00;3.58;;;3.13;;
79361;SDS011;68830;47.566;19.012;2023-06-19T14:52:03;4.28;;;3.88;;
79361;SDS011;68830;47.566;19.012;2023-06-19T14:55:07;4.03;;;3.63;;
79361;SDS011;68830;47.566;19.012;2023-06-19T14:58:09;4.30;;;3.53;;
79361;SDS011;68830;47.566;19.012;2023-06-19T15:01:12;4.43;;;3.80;;
79361;SDS011;68830;47.566;19.012;2023-06-19T15:04:14;5.05;;;4.30;;
79361;SDS011;68830;47.566;19.012;2023-06-19T15:07:17;4.35;;;3.88;;
79361;SDS011;68830;47.566;19.012;2023-06-19T15:10:20;5.80;;;3.53;;
79361;SDS011;68830;47.566;19.012;2023-06-19T15:13:23;4.10;;;3.70;;
79361;SDS011;68830;47.566;19.012;2023-06-19T15:16:25;4.38;;;3.97;;
79361;SDS011;68830;47.566;19.012;2023-06-19T15:19:26;4.22;;;3.33;;
79361;SDS011;68830;47.566;19.012;2023-06-19T15:22:28;4.63;;;3.83;;
79361;SDS011;68830;47.566;19.012;2023-06-19T15:25:32;4.75;;;3.65;;
79361;SDS011;68830;47.566;19.012;2023-06-19T15:28:33;4.50;;;3.13;;
79361;SDS011;68830;47.566;19.012;2023-06-19T15:31:37;6.25;;;3.95;;
79361;SDS011;68830;47.566;19.012;2023-06-19T15:34:38;6.20;;;3.75;;
79361;SDS011;68830;47.566;19.012;2023-06-19T15:37:42;3.97;;;3.58;;
79361;SDS011;68830;47.566;19.012;2023-06-19T15:40:46;4.13;;;3.72;;
79361;SDS011;68830;47.566;19.012;2023-06-19T15:43:48;3.85;;;3.45;;
79361;SDS011;68830;47.566;19.012;2023-06-19T15:46:50;4.07;;;3.67;;
79361;SDS011;68830;47.566;19.012;2023-06-19T15:49:52;4.32;;;3.72;;
79361;SDS011;68830;47.566;19.012;2023-06-19T15:52:55;4.32;;;3.92;;
79361;SDS011;68830;47.566;19.012;2023-06-19T15:55:58;3.83;;;3.50;;
79361;SDS011;68830;47.566;19.012;2023-06-19T15:59:00;4.20;;;3.65;;
79361;SDS011;68830;47.566;19.012;2023-06-19T16:02:02;3.95;;;3.45;;
79361;SDS011;68830;47.566;19.012;2023-06-19T16:05:04;4.80;;;3.83;;
79361;SDS011;68830;47.566;19.012;2023-06-19T16:08:07;3.67;;;3.38;;
79361;SDS011;68830;47.566;19.012;2023-06-19T16:11:11;4.60;;;4.13;;
79361;SDS011;68830;47.566;19.012;2023-06-19T16:14:13;5.05;;;3.35;;
79361;SDS011;68830;47.566;19.012;2023-06-19T16:17:16;4.63;;;4.07;;
79361;SDS011;68830;47.566;19.012;2023-06-19T16:20:18;4.07;;;3.40;;
79361;SDS011;68830;47.566;19.012;2023-06-19T16:23:20;4.53;;;4.13;;
79361;SDS011;68830;47.566;19.012;2023-06-19T16:26:24;4.18;;;3.53;;
79361;SDS011;68830;47.566;19.012;2023-06-19T16:29:26;3.45;;;3.15;;
79361;SDS011;68830;47.566;19.012;2023-06-19T16:32:28;4.70;;;4.15;;
79361;SDS011;68830;47.566;19.012;2023-06-19T16:35:30;7.50;;;3.72;;
79361;SDS011;68830;47.566;19.012;2023-06-19T16:38:32;3.72;;;3.40;;
79361;SDS011;68830;47.566;19.012;2023-06-19T16:41:36;4.40;;;3.92;;
79361;SDS011;68830;47.566;19.012;2023-06-19T16:44:38;4.22;;;3.55;;
79361;SDS011;68830;47.566;19.012;2023-06-19T16:47:40;5.07;;;3.70;;
79361;SDS011;68830;47.566;19.012;2023-06-19T16:50:42;4.13;;;3.70;;
79361;SDS011;68830;47.566;19.012;2023-06-19T16:53:45;5.18;;;4.22;;
79361;SDS011;68830;47.566;19.012;2023-06-19T16:56:48;3.75;;;3.20;;
79361;SDS011;68830;47.566;19.012;2023-06-19T16:59:51;5.28;;;4.47;;
79361;SDS011;68830;47.566;19.012;2023-06-19T17:02:53;4.40;;;3.97;;
79361;SDS011;68830;47.566;19.012;2023-06-19T17:05:57;4.55;;;3.97;;
79361;SDS011;68830;47.566;19.012;2023-06-19T17:08:59;4.47;;;3.78;;
79361;SDS011;68830;47.566;19.012;2023-06-19T17:12:03;4.28;;;3.88;;
79361;SDS011;68830;47.566;19.012;2023-06-19T17:15:06;5.18;;;4.05;;
79361;SDS011;68830;47.566;19.012;2023-06-19T17:18:09;4.60;;;4.15;;
79361;SDS011;68830;47.566;19.012;2023-06-19T17:21:11;4.72;;;4.28;;
79361;SDS011;68830;47.566;19.012;2023-06-19T17:24:13;4.55;;;4.15;;
79361;SDS011;68830;47.566;19.012;2023-06-19T17:27:19;4.20;;;3.80;;
79361;SDS011;68830;47.566;19.012;2023-06-19T17:30:21;5.68;;;4.70;;
79361;SDS011;68830;47.566;19.012;2023-06-19T17:33:24;4.40;;;3.88;;
79361;SDS011;68830;47.566;19.012;2023-06-19T17:36:26;4.60;;;4.03;;
79361;SDS011;68830;47.566;19.012;2023-06-19T17:39:29;4.60;;;4.20;;
79361;SDS011;68830;47.566;19.012;2023-06-19T17:42:32;7.13;;;4.45;;
79361;SDS011;68830;47.566;19.012;2023-06-19T17:45:35;4.43;;;4.00;;
79361;SDS011;68830;47.566;19.012;2023-06-19T17:48:37;7.22;;;3.70;;
79361;SDS011;68830;47.566;19.012;2023-06-19T17:51:40;6.00;;;4.00;;
79361;SDS011;68830;47.566;19.012;2023-06-19T17:54:42;4.55;;;4.00;;
79361;SDS011;68830;47.566;19.012;2023-06-19T17:57:52;4.70;;;4.20;;
79361;SDS011;68830;47.566;19.012;2023-06-19T18:00:53;4.80;;;3.70;;
79361;SDS011;68830;47.566;19.012;2023-06-19T18:03:56;5.18;;;4.05;;
79361;SDS011;68830;47.566;19.012;2023-06-19T18:06:58;3.83;;;3.42;;
79361;SDS011;68830;47.566;19.012;2023-06-19T18:10:00;5.53;;;4.03;;
79361;SDS011;68830;47.566;19.012;2023-06-19T18:13:03;4.68;;;4.20;;
79361;SDS011;68830;47.566;19.012;2023-06-19T18:16:05;4.38;;;3.97;;
79361;SDS011;68830;47.566;19.012;2023-06-19T18:19:13;4.75;;;4.35;;